Time;durP1;ratioP1;P1;durP2;ratioP2;P2;SDS_P1;SDS_P2;PMS_P1;PMS_P2;Temp;Humidity;BMP_temperature;BMP_pressure;BME280_temperature;BME280_humidity;BME280_pressure;Samples;Min_cycle;Max_cycle;Signal;HPM_P1;HPM_P2
2024/03/11 00:00:33;;;;;;;6.28;1.77;;;16.10;79.60;;;;;;4994206;28;20482;-53
2024/03/11 00:02:59;;;;;;;4.65;1.45;;;16.20;79.80;;;;;;4994279;28;20157;-51
2024/03/11 00:05:26;;;;;;;6.25;2.05;;;16.10;79.80;;;;;;4994024;28;20121;-52
2024/03/11 00:07:52;;;;;;;9.02;2.63;;;16.10;79.90;;;;;;4953188;29;20074;-53
2024/03/11 00:10:18;;;;;;;9.57;2.92;;;16.20;80.10;;;;;;4921358;29;20174;-54
2024/03/11 00:12:53;;;;;;;8.95;1.77;;;16.20;80.10;;;;;;4953357;29;20083;-54
2024/03/11 00:15:20;;;;;;;8.90;1.80;;;16.10;80.30;;;;;;4953291;29;20027;-50
2024/03/11 00:17:50;;;;;;;7.45;1.83;;;16.10;80.40;;;;;;4953284;29;20043;-52
2024/03/11 00:20:16;;;;;;;7.15;1.95;;;16.00;80.50;;;;;;4952950;28;20055;-54
2024/03/11 00:22:42;;;;;;;7.78;2.10;;;16.00;80.50;;;;;;4953195;29;20510;-51
2024/03/11 00:25:08;;;;;;;8.18;2.08;;;16.10;80.80;;;;;;4953070;29;20110;-54
2024/03/11 00:27:37;;;;;;;7.35;2.08;;;16.00;81.00;;;;;;4905559;29;20051;-51
2024/03/11 00:30:08;;;;;;;6.28;2.42;;;16.00;81.20;;;;;;4953156;29;20023;-51
2024/03/11 00:32:35;;;;;;;7.10;2.28;;;15.90;81.30;;;;;;4921572;29;20178;-53
2024/03/11 00:35:02;;;;;;;6.68;1.98;;;16.00;81.40;;;;;;4953133;29;20035;-52
2024/03/11 00:37:28;;;;;;;6.40;2.13;;;15.90;81.70;;;;;;4952991;29;20031;-52
2024/03/11 00:39:54;;;;;;;7.43;1.88;;;15.90;81.70;;;;;;4991908;28;20045;-52
2024/03/11 00:42:20;;;;;;;5.20;1.90;;;15.80;81.70;;;;;;4993673;28;20030;-54
2024/03/11 00:44:50;;;;;;;5.65;2.25;;;15.80;81.90;;;;;;4993990;28;20382;-54
2024/03/11 00:47:21;;;;;;;8.18;2.08;;;15.80;82.20;;;;;;4993769;28;20046;-51
2024/03/11 00:49:47;;;;;;;7.95;2.97;;;15.70;82.60;;;;;;4993702;28;20026;-51
2024/03/11 00:52:14;;;;;;;7.07;1.98;;;15.70;82.60;;;;;;4959804;28;20065;-51
2024/03/11 00:54:40;;;;;;;13.48;3.22;;;15.80;82.60;;;;;;4993943;28;20085;-53
2024/03/11 00:57:06;;;;;;;7.28;2.20;;;15.80;82.70;;;;;;4994035;28;20030;-50
2024/03/11 00:59:32;;;;;;;6.65;2.40;;;15.80;82.70;;;;;;4993759;28;20026;-53
2024/03/11 01:01:58;;;;;;;7.57;2.45;;;15.80;82.90;;;;;;4911747;28;20141;-52
2024/03/11 01:04:24;;;;;;;7.53;2.33;;;15.80;82.90;;;;;;4994061;28;20042;-53
2024/03/11 01:06:50;;;;;;;6.80;2.10;;;15.80;83.10;;;;;;4997347;28;20038;-54
2024/03/11 01:09:20;;;;;;;8.70;2.35;;;15.80;83.20;;;;;;4997277;28;20537;-53
2024/03/11 01:11:48;;;;;;;6.38;2.55;;;15.80;83.30;;;;;;4997598;28;20034;-51
2024/03/11 01:14:15;;;;;;;7.53;2.38;;;15.80;83.30;;;;;;4997286;28;20109;-52
2024/03/11 01:16:41;;;;;;;8.07;2.25;;;15.80;83.40;;;;;;4997123;28;20030;-51
2024/03/11 01:19:11;;;;;;;6.85;2.97;;;15.80;83.50;;;;;;4997056;28;20101;-51
2024/03/11 01:21:37;;;;;;;6.18;2.28;;;15.70;83.50;;;;;;4997243;28;20034;-51
2024/03/11 01:24:07;;;;;;;5.57;1.92;;;15.80;83.30;;;;;;4962878;28;20482;-53
2024/03/11 01:26:33;;;;;;;7.55;2.85;;;15.80;83.20;;;;;;4996596;28;20065;-53
2024/03/11 01:28:59;;;;;;;11.43;3.03;;;15.80;83.40;;;;;;4963045;28;20514;-55
2024/03/11 01:31:25;;;;;;;6.70;2.25;;;15.70;83.50;;;;;;4962931;28;20038;-51
2024/03/11 01:33:51;;;;;;;9.82;2.22;;;15.60;83.70;;;;;;4996922;28;20092;-51
2024/03/11 01:36:17;;;;;;;7.72;2.47;;;15.70;83.90;;;;;;4996890;28;20030;-51
2024/03/11 01:38:46;;;;;;;7.00;2.72;;;15.70;84.00;;;;;;4996725;28;20037;-50
2024/03/11 01:41:12;;;;;;;8.05;1.90;;;15.70;84.20;;;;;;4996734;28;20035;-50
2024/03/11 01:43:38;;;;;;;5.47;2.05;;;15.70;84.30;;;;;;4996754;28;20045;-52
2024/03/11 01:46:06;;;;;;;8.82;2.85;;;15.60;84.10;;;;;;4914832;28;20486;-54
2024/03/11 01:48:32;;;;;;;10.32;2.30;;;15.70;84.60;;;;;;4996661;28;20092;-50
2024/03/11 01:50:58;;;;;;;8.70;3.03;;;15.60;84.60;;;;;;4996653;28;20026;-51
2024/03/11 01:53:24;;;;;;;7.55;2.47;;;15.50;84.70;;;;;;4978606;28;20038;-51
2024/03/11 01:55:51;;;;;;;8.25;3.05;;;15.50;85.00;;;;;;4996454;28;20454;-53
2024/03/11 01:58:20;;;;;;;5.28;2.47;;;15.40;85.00;;;;;;4996532;28;20061;-52
2024/03/11 02:00:46;;;;;;;7.57;2.47;;;15.40;85.00;;;;;;4996361;28;20042;-51
2024/03/11 02:03:12;;;;;;;9.35;2.72;;;15.40;85.40;;;;;;4962328;28;20034;-55
2024/03/11 02:05:41;;;;;;;8.05;2.78;;;15.40;85.60;;;;;;4996275;28;20121;-54
2024/03/11 02:08:07;;;;;;;4.03;1.67;;;15.30;85.70;;;;;;4996065;28;20092;-52
2024/03/11 02:10:33;;;;;;;6.72;2.35;;;15.30;85.70;;;;;;4996221;28;20031;-51
2024/03/11 02:12:59;;;;;;;4.93;2.33;;;15.20;85.90;;;;;;4996263;28;20026;-51
2024/03/11 02:15:26;;;;;;;6.95;2.30;;;15.10;86.20;;;;;;4996106;28;20129;-52
2024/03/11 02:17:53;;;;;;;5.63;2.42;;;15.00;86.50;;;;;;4995496;28;20378;-51
2024/03/11 02:20:21;;;;;;;5.15;2.20;;;15.00;86.60;;;;;;4995890;28;20165;-54
2024/03/11 02:22:53;;;;;;;5.68;2.80;;;15.00;86.70;;;;;;4995827;28;20105;-52
2024/03/11 02:25:30;;;;;;;6.57;2.10;;;15.00;86.90;;;;;;4996053;28;20092;-51
2024/03/11 02:28:00;;;;;;;7.32;2.60;;;15.00;87.30;;;;;;4995756;28;20046;-52
2024/03/11 02:30:27;;;;;;;3.28;1.52;;;15.00;87.20;;;;;;4996076;28;20034;-52
2024/03/11 02:32:53;;;;;;;7.57;1.80;;;15.10;86.70;;;;;;4996024;28;20070;-51
2024/03/11 02:35:20;;;;;;;4.10;1.80;;;15.20;86.60;;;;;;4995751;28;20045;-52
2024/03/11 02:37:46;;;;;;;6.75;2.83;;;15.30;86.20;;;;;;4995677;28;20081;-52
2024/03/11 02:40:18;;;;;;;7.55;1.85;;;15.40;86.30;;;;;;4995593;28;20033;-54
2024/03/11 02:42:44;;;;;;;9.02;1.77;;;15.30;86.40;;;;;;4995545;28;20121;-51
2024/03/11 02:45:14;;;;;;;6.65;1.90;;;15.40;86.70;;;;;;4995574;28;20027;-53
2024/03/11 02:47:41;;;;;;;6.15;2.17;;;15.30;86.90;;;;;;4995510;28;20050;-53
2024/03/11 02:50:07;;;;;;;5.63;2.28;;;15.30;86.90;;;;;;4995630;28;20045;-51
2024/03/11 02:52:34;;;;;;;4.90;2.13;;;15.40;86.90;;;;;;4995521;28;20030;-50
2024/03/11 02:55:01;;;;;;;6.97;2.55;;;15.40;87.30;;;;;;4995303;28;20050;-53
2024/03/11 02:57:28;;;;;;;5.43;2.35;;;15.30;87.50;;;;;;4995575;28;20045;-50
2024/03/11 02:59:54;;;;;;;8.20;2.20;;;15.40;87.70;;;;;;4995321;28;20030;-52
2024/03/11 03:02:20;;;;;;;8.55;2.70;;;15.40;88.00;;;;;;4995316;28;20030;-53
2024/03/11 03:04:46;;;;;;;3.60;2.00;;;15.40;88.10;;;;;;4995191;28;20085;-52
2024/03/11 03:07:16;;;;;;;6.03;2.78;;;15.40;88.10;;;;;;4995145;28;20478;-51
2024/03/11 03:09:42;;;;;;;3.78;1.58;;;15.40;88.20;;;;;;4954259;29;20126;-52
2024/03/11 03:12:12;;;;;;;8.80;2.60;;;15.40;88.20;;;;;;4954234;29;20043;-51
2024/03/11 03:14:39;;;;;;;4.85;2.13;;;15.40;88.30;;;;;;4954243;29;20043;-54
2024/03/11 03:17:07;;;;;;;5.13;2.60;;;15.40;88.50;;;;;;4954143;29;20086;-50
2024/03/11 03:19:33;;;;;;;6.03;2.42;;;15.40;88.70;;;;;;4957944;28;20078;-52
2024/03/11 03:21:59;;;;;;;7.90;2.40;;;15.40;89.00;;;;;;4973501;28;20022;-53
2024/03/11 03:24:24;;;;;;;5.38;2.50;;;15.30;89.20;;;;;;4957272;28;20510;-50
2024/03/11 03:26:50;;;;;;;7.53;2.58;;;15.20;89.50;;;;;;4970091;28;20035;-50
2024/03/11 03:29:16;;;;;;;7.00;2.10;;;15.20;89.80;;;;;;4953607;28;20491;-53
2024/03/11 03:31:41;;;;;;;6.95;3.03;;;15.10;90.00;;;;;;4953879;29;20097;-52
2024/03/11 03:34:09;;;;;;;2.72;1.85;;;15.10;90.10;;;;;;4953999;29;20039;-50
2024/03/11 03:36:35;;;;;;;9.27;2.88;;;15.00;90.10;;;;;;4953824;29;20082;-51
2024/03/11 03:39:05;;;;;;;2.47;1.63;;;15.00;90.30;;;;;;4953799;29;20506;-51
2024/03/11 03:41:31;;;;;;;7.60;2.65;;;14.90;90.30;;;;;;4971766;28;20047;-50
2024/03/11 03:43:57;;;;;;;3.83;1.77;;;15.00;90.40;;;;;;4975053;28;20026;-53
2024/03/11 03:46:23;;;;;;;9.10;2.88;;;14.90;90.50;;;;;;4975156;28;20035;-51
2024/03/11 03:48:49;;;;;;;4.68;2.10;;;14.80;90.50;;;;;;4974987;28;20506;-53
2024/03/11 03:51:16;;;;;;;5.88;2.60;;;14.80;90.50;;;;;;4979640;28;20034;-51
2024/03/11 03:53:41;;;;;;;6.93;2.70;;;14.80;90.50;;;;;;4994205;28;20080;-50
2024/03/11 03:56:10;;;;;;;6.05;2.30;;;14.80;90.60;;;;;;4994246;28;20030;-51
2024/03/11 03:58:36;;;;;;;5.47;2.80;;;14.90;90.60;;;;;;4994056;28;20430;-50
2024/03/11 04:01:02;;;;;;;8.38;3.00;;;14.90;90.70;;;;;;4943999;28;20042;-54
2024/03/11 04:03:28;;;;;;;5.72;2.83;;;14.90;90.80;;;;;;4994195;28;20026;-50
2024/03/11 04:05:54;;;;;;;7.18;2.60;;;14.80;90.90;;;;;;4994419;28;20037;-53
2024/03/11 04:08:20;;;;;;;8.77;2.42;;;14.70;91.00;;;;;;4994243;28;20046;-51
2024/03/11 04:10:47;;;;;;;8.07;3.13;;;14.70;91.10;;;;;;4959985;28;20070;-53
2024/03/11 04:13:13;;;;;;;6.30;2.15;;;14.70;91.20;;;;;;4994073;28;20060;-52
2024/03/11 04:15:42;;;;;;;6.03;2.38;;;14.60;91.30;;;;;;4994065;28;20026;-52
2024/03/11 04:18:10;;;;;;;8.50;3.13;;;14.50;91.50;;;;;;4993809;28;20041;-51
2024/03/11 04:20:37;;;;;;;7.82;3.03;;;14.50;91.60;;;;;;4994040;28;20142;-54
2024/03/11 04:23:07;;;;;;;7.75;2.65;;;14.50;91.70;;;;;;4994047;28;20061;-52
2024/03/11 04:25:37;;;;;;;8.32;3.33;;;14.50;91.70;;;;;;4961029;28;20042;-51
2024/03/11 04:28:06;;;;;;;9.07;3.05;;;14.50;91.70;;;;;;4976322;28;20046;-55
2024/03/11 04:30:35;;;;;;;6.32;3.50;;;14.50;91.60;;;;;;4959964;28;20038;-53
2024/03/11 04:33:01;;;;;;;13.57;3.97;;;14.60;91.70;;;;;;4993894;28;20041;-53
2024/03/11 04:35:33;;;;;;;9.90;3.05;;;14.50;91.80;;;;;;4993748;28;20033;-51
2024/03/11 04:38:00;;;;;;;6.40;2.90;;;14.50;91.90;;;;;;4994187;28;20031;-55
2024/03/11 04:40:28;;;;;;;8.05;3.10;;;14.50;91.90;;;;;;4996269;28;20034;-52
2024/03/11 04:42:55;;;;;;;6.25;3.97;;;14.40;92.00;;;;;;4997846;28;20387;-51
2024/03/11 04:45:22;;;;;;;11.45;4.28;;;14.50;92.10;;;;;;4997923;28;20089;-54
2024/03/11 04:47:48;;;;;;;9.15;3.47;;;14.40;92.10;;;;;;4997644;28;20077;-52
2024/03/11 04:50:20;;;;;;;8.20;2.90;;;14.40;92.20;;;;;;4997669;28;20380;-53
2024/03/11 04:52:47;;;;;;;8.65;2.83;;;14.40;92.20;;;;;;4997573;28;20045;-51
2024/03/11 04:55:13;;;;;;;6.93;3.15;;;14.30;92.30;;;;;;4998114;28;20034;-51
2024/03/11 04:57:39;;;;;;;7.70;2.80;;;14.30;92.50;;;;;;4997782;28;20085;-56
2024/03/11 05:00:08;;;;;;;7.03;3.17;;;14.20;92.60;;;;;;4997770;28;20394;-52
2024/03/11 05:02:38;;;;;;;5.55;3.05;;;14.10;92.90;;;;;;4997480;28;20398;-53
2024/03/11 05:05:07;;;;;;;8.07;2.80;;;14.20;93.50;;;;;;4980082;28;20108;-53
2024/03/11 05:07:33;;;;;;;7.18;2.40;;;14.10;93.20;;;;;;4944889;28;20046;-52
2024/03/11 05:09:58;;;;;;;6.30;3.13;;;14.30;94.00;;;;;;4978066;28;20038;-52
2024/03/11 05:12:24;;;;;;;8.98;4.10;;;14.40;94.20;;;;;;4977828;28;20037;-54
2024/03/11 05:14:50;;;;;;;6.93;3.20;;;14.50;94.00;;;;;;4977503;28;20039;-52
2024/03/11 05:17:16;;;;;;;5.68;2.42;;;14.50;94.00;;;;;;4977455;28;20027;-53
2024/03/11 05:19:41;;;;;;;5.28;3.15;;;14.50;93.40;;;;;;4947517;28;20057;-54
2024/03/11 05:22:08;;;;;;;8.52;1.92;;;14.60;92.90;;;;;;4996681;28;20028;-52
2024/03/11 05:24:36;;;;;;;4.43;2.22;;;14.50;92.80;;;;;;4996614;28;20378;-54
2024/03/11 05:27:02;;;;;;;7.03;2.80;;;14.50;93.00;;;;;;4978497;28;20057;-51
2024/03/11 05:29:28;;;;;;;9.02;3.03;;;14.60;93.00;;;;;;4996361;28;20030;-54
2024/03/11 05:31:54;;;;;;;6.40;3.20;;;14.60;92.70;;;;;;4996688;28;20032;-54
2024/03/11 05:34:21;;;;;;;9.65;3.08;;;14.60;92.70;;;;;;4996708;28;20041;-54
2024/03/11 05:36:47;;;;;;;9.68;3.50;;;14.60;92.80;;;;;;4996766;28;20533;-54
2024/03/11 05:39:12;;;;;;;6.00;2.63;;;14.60;92.80;;;;;;4978953;28;20038;-55
2024/03/11 05:41:41;;;;;;;7.90;3.08;;;14.60;92.90;;;;;;4996618;28;20030;-54
2024/03/11 05:44:07;;;;;;;9.70;3.22;;;14.60;92.90;;;;;;4996669;28;20038;-55
2024/03/11 05:46:33;;;;;;;8.35;2.90;;;14.60;92.80;;;;;;4996632;28;20050;-56
2024/03/11 05:49:00;;;;;;;6.20;2.78;;;14.60;92.90;;;;;;4996568;28;20501;-54
2024/03/11 05:51:31;;;;;;;8.43;3.60;;;14.70;92.80;;;;;;4995448;28;20105;-54
2024/03/11 05:53:58;;;;;;;8.73;3.08;;;14.70;92.90;;;;;;4996626;28;20505;-56
2024/03/11 05:56:25;;;;;;;7.35;3.20;;;14.70;92.80;;;;;;4996462;28;20153;-56
2024/03/11 05:58:51;;;;;;;12.98;3.60;;;14.70;92.90;;;;;;4996384;28;20052;-52
2024/03/11 06:01:20;;;;;;;9.32;3.10;;;14.70;92.90;;;;;;4996402;28;20088;-54
2024/03/11 06:03:49;;;;;;;9.57;3.17;;;14.80;92.90;;;;;;4996364;28;20038;-54
2024/03/11 06:06:19;;;;;;;9.75;2.22;;;14.80;92.90;;;;;;4994617;28;20038;-53
2024/03/11 06:08:45;;;;;;;10.05;3.80;;;14.70;92.80;;;;;;4992445;28;20038;-53
2024/03/11 06:11:11;;;;;;;10.48;3.50;;;14.80;92.80;;;;;;4995218;28;20155;-55
2024/03/11 06:13:39;;;;;;;12.10;5.10;;;14.80;92.80;;;;;;4995454;28;20042;-52
2024/03/11 06:16:08;;;;;;;9.52;3.65;;;14.80;92.80;;;;;;4993459;28;20032;-52
2024/03/11 06:18:39;;;;;;;15.07;4.40;;;14.90;92.80;;;;;;4994676;28;20390;-51
2024/03/11 06:21:06;;;;;;;9.45;3.42;;;14.90;92.70;;;;;;4977931;28;20502;-53
2024/03/11 06:23:32;;;;;;;8.18;4.10;;;14.90;92.70;;;;;;4975221;28;20483;-54
2024/03/11 06:25:58;;;;;;;7.65;4.20;;;15.00;92.80;;;;;;4972282;28;20027;-53
2024/03/11 06:28:26;;;;;;;17.08;10.73;;;15.00;92.70;;;;;;4975250;28;20042;-54
2024/03/11 06:30:53;;;;;;;12.10;3.60;;;15.00;92.70;;;;;;4976065;28;20042;-52
2024/03/11 06:33:21;;;;;;;9.65;3.58;;;15.00;92.60;;;;;;4958548;28;20058;-52
2024/03/11 06:35:47;;;;;;;15.07;3.65;;;15.00;92.50;;;;;;4976195;28;20043;-51
2024/03/11 06:38:14;;;;;;;6.68;3.45;;;15.00;92.40;;;;;;4975117;28;20129;-53
2024/03/11 06:40:40;;;;;;;5.05;2.65;;;15.10;92.40;;;;;;4976056;28;20466;-53
2024/03/11 06:43:07;;;;;;;6.75;3.20;;;15.10;92.30;;;;;;4976446;28;20035;-53
2024/03/11 06:45:33;;;;;;;3.80;2.08;;;15.10;92.50;;;;;;4976024;28;20546;-54
2024/03/11 06:47:58;;;;;;;8.88;2.97;;;15.10;92.50;;;;;;4975261;28;20038;-53
2024/03/11 06:50:25;;;;;;;8.27;3.33;;;15.20;92.60;;;;;;4941996;28;20154;-53
2024/03/11 06:52:51;;;;;;;7.47;2.90;;;15.20;92.70;;;;;;4972574;28;20038;-53
2024/03/11 06:55:16;;;;;;;4.50;2.22;;;15.20;92.80;;;;;;4975923;28;20089;-52
2024/03/11 06:57:42;;;;;;;6.65;3.05;;;15.30;92.60;;;;;;4975909;28;20034;-52
2024/03/11 07:00:17;;;;;;;8.13;2.80;;;15.40;92.40;;;;;;4975804;28;20035;-54
2024/03/11 07:02:46;;;;;;;10.23;3.20;;;15.50;92.40;;;;;;4912147;28;20050;-53
2024/03/11 07:05:13;;;;;;;6.25;2.55;;;15.70;93.70;;;;;;4976122;28;20042;-52
2024/03/11 07:07:42;;;;;;;10.75;3.50;;;15.70;93.10;;;;;;4975739;28;20113;-54
2024/03/11 07:10:12;;;;;;;7.93;2.70;;;15.70;92.10;;;;;;4975647;28;20031;-53
2024/03/11 07:12:42;;;;;;;4.07;2.47;;;15.70;92.00;;;;;;4975709;28;20035;-53
2024/03/11 07:15:11;;;;;;;9.45;3.30;;;15.80;92.00;;;;;;4957688;28;20504;-54
2024/03/11 07:17:41;;;;;;;4.00;2.83;;;15.80;91.90;;;;;;4975722;28;20042;-54
2024/03/11 07:20:07;;;;;;;17.13;3.60;;;15.80;92.00;;;;;;4975412;28;20498;-53
2024/03/11 07:22:38;;;;;;;7.63;2.80;;;;;;;;;;4941905;28;20047;-53
2024/03/11 07:25:10;;;;;;;7.60;2.10;;;16.20;99.90;;;;;;4941640;28;20054;-53
2024/03/11 07:27:39;;;;;;;6.07;2.35;;;;;;;;;;4943107;28;20054;-54
2024/03/11 07:30:09;;;;;;;7.07;2.17;;;16.30;99.90;;;;;;4975367;28;20102;-53
2024/03/11 07:32:36;;;;;;;6.40;3.00;;;16.30;99.90;;;;;;4975423;28;20062;-52
2024/03/11 07:35:03;;;;;;;6.82;2.70;;;16.30;99.90;;;;;;4974872;28;20019;-53
2024/03/11 07:37:29;;;;;;;6.47;3.03;;;16.30;99.90;;;;;;4953203;28;20039;-52
2024/03/11 07:39:54;;;;;;;8.77;3.78;;;16.20;91.70;;;;;;4953262;29;20102;-53
2024/03/11 07:42:24;;;;;;;7.18;2.50;;;16.20;91.70;;;;;;4936674;29;20054;-53
2024/03/11 07:44:49;;;;;;;7.95;3.05;;;16.20;91.30;;;;;;4922151;29;20043;-52
2024/03/11 07:47:15;;;;;;;6.07;3.17;;;16.30;91.20;;;;;;4953204;29;20129;-53
2024/03/11 07:49:42;;;;;;;8.07;3.15;;;16.50;91.10;;;;;;4921189;29;20046;-53
2024/03/11 07:52:09;;;;;;;7.13;2.40;;;16.60;90.90;;;;;;4953005;29;20393;-53
2024/03/11 07:54:35;;;;;;;5.88;2.28;;;16.70;90.50;;;;;;4953117;29;20166;-53
2024/03/11 07:57:01;;;;;;;4.30;1.90;;;;;;;;;;4949633;28;20142;-53
2024/03/11 07:59:27;;;;;;;5.85;3.08;;;16.90;89.40;;;;;;4948441;28;20091;-52
2024/03/11 08:01:53;;;;;;;4.10;1.83;;;;;;;;;;4950939;28;20047;-54
2024/03/11 08:04:19;;;;;;;4.38;1.48;;;;;;;;;;4931993;29;20600;-54
2024/03/11 08:06:45;;;;;;;7.00;2.17;;;17.20;86.90;;;;;;4948429;28;20031;-53
2024/03/11 08:09:13;;;;;;;9.70;2.00;;;17.30;87.10;;;;;;4933391;28;20406;-53
2024/03/11 08:11:39;;;;;;;6.55;2.20;;;;;;;;;;4953587;28;20046;-53
2024/03/11 08:14:07;;;;;;;7.00;2.42;;;;;;;;;;4967698;28;20452;-56
2024/03/11 08:16:33;;;;;;;7.00;3.20;;;;;;;;;;4967360;28;20054;-54
2024/03/11 08:18:59;;;;;;;5.57;2.20;;;18.20;84.70;;;;;;4971397;28;20026;-53
2024/03/11 08:21:25;;;;;;;3.60;1.83;;;;;;;;;;4966751;28;20050;-53
2024/03/11 08:23:52;;;;;;;10.77;2.80;;;;;;;;;;4969701;28;20113;-55
2024/03/11 08:26:18;;;;;;;7.97;1.73;;;18.70;85.10;;;;;;4973044;28;20491;-54
2024/03/11 08:28:44;;;;;;;7.93;2.55;;;;;;;;;;4969833;28;20039;-52
2024/03/11 08:31:10;;;;;;;7.18;2.63;;;18.80;87.20;;;;;;4962966;28;20031;-53
2024/03/11 08:33:36;;;;;;;3.13;1.50;;;18.90;89.60;;;;;;4964189;28;20049;-53
2024/03/11 08:36:06;;;;;;;6.93;3.28;;;;;;;;;;4965734;28;20039;-53
2024/03/11 08:38:33;;;;;;;6.30;2.22;;;19.00;91.80;;;;;;4958837;28;20027;-53
2024/03/11 08:41:06;;;;;;;5.63;1.80;;;19.00;84.40;;;;;;4966274;28;20094;-53
2024/03/11 08:43:32;;;;;;;6.05;2.08;;;19.00;83.30;;;;;;4970345;28;20117;-53
2024/03/11 08:45:58;;;;;;;7.25;2.38;;;18.90;83.20;;;;;;4942870;28;20177;-54
2024/03/11 08:48:24;;;;;;;10.57;2.22;;;18.90;83.10;;;;;;4971106;28;20035;-53
2024/03/11 08:50:51;;;;;;;3.22;1.27;;;;;;;;;;4965882;28;20046;-52
2024/03/11 08:53:17;;;;;;;3.28;1.60;;;;;;;;;;4970178;28;20065;-52
2024/03/11 08:55:43;;;;;;;11.05;3.25;;;;;;;;;;4971826;28;20078;-52
2024/03/11 08:58:12;;;;;;;8.13;1.98;;;;;;;;;;4970652;28;20030;-54
2024/03/11 09:00:38;;;;;;;6.70;2.33;;;20.60;96.90;;;;;;4937825;28;20042;-54
2024/03/11 09:03:05;;;;;;;4.57;2.45;;;20.00;82.20;;;;;;4967465;28;20431;-52
2024/03/11 09:05:34;;;;;;;7.28;2.88;;;19.80;82.80;;;;;;4968080;28;20118;-50
2024/03/11 09:08:03;;;;;;;6.32;2.80;;;19.80;83.10;;;;;;4968820;28;20057;-53
2024/03/11 09:10:29;;;;;;;7.55;2.13;;;19.90;83.40;;;;;;4971041;28;20035;-52
2024/03/11 09:12:55;;;;;;;7.85;2.20;;;20.20;82.60;;;;;;4953106;28;20041;-54
2024/03/11 09:15:23;;;;;;;8.30;3.20;;;;;;;;;;4969458;28;20030;-53
2024/03/11 09:17:50;;;;;;;5.53;1.70;;;20.60;88.10;;;;;;4963081;28;20050;-52
2024/03/11 09:20:17;;;;;;;7.47;2.67;;;20.20;81.20;;;;;;4966975;28;20089;-52
2024/03/11 09:22:51;;;;;;;8.05;2.42;;;20.30;81.80;;;;;;4965583;28;20035;-51
2024/03/11 09:25:18;;;;;;;6.90;2.28;;;;;;;;;;4966047;28;20034;-52
2024/03/11 09:27:49;;;;;;;6.90;2.53;;;20.20;80.60;;;;;;4913809;29;20147;-53
2024/03/11 09:30:16;;;;;;;7.80;2.67;;;20.30;81.60;;;;;;4885377;29;20032;-50
2024/03/11 09:32:49;;;;;;;7.25;2.10;;;20.20;81.00;;;;;;4909859;29;20051;-50
2024/03/11 09:35:18;;;;;;;6.60;1.73;;;20.30;80.60;;;;;;4914305;29;20036;-53
2024/03/11 09:37:52;;;;;;;5.85;1.75;;;19.90;80.60;;;;;;4899043;29;20044;-51
2024/03/11 09:40:19;;;;;;;4.18;1.48;;;19.70;81.10;;;;;;4904895;29;20037;-52
2024/03/11 09:42:49;;;;;;;4.53;1.67;;;19.60;81.80;;;;;;4912187;29;20048;-53
2024/03/11 09:45:22;;;;;;;8.10;2.17;;;19.20;82.20;;;;;;4907359;29;20068;-52
2024/03/11 09:47:55;;;;;;;3.17;1.52;;;18.90;82.30;;;;;;4891666;29;20055;-54
2024/03/11 09:50:30;;;;;;;4.70;2.00;;;18.70;83.20;;;;;;4886678;29;20071;-53
2024/03/11 09:53:12;;;;;;;3.22;2.45;;;18.50;93.90;;;;;;4886782;29;20131;-52
2024/03/11 09:55:39;;;;;;;;;;;18.70;95.00;;;;;;4895083;29;20075;-51
2024/03/11 09:58:11;;;;;;;6.68;2.85;;;18.50;84.10;;;;;;4907063;29;20596;-53
2024/03/11 10:00:48;;;;;;;5.80;2.75;;;18.50;85.40;;;;;;4943527;28;20043;-53
2024/03/11 10:03:21;;;;;;;7.05;2.97;;;18.60;85.70;;;;;;4946994;29;20059;-52
2024/03/11 10:06:04;;;;;;;6.25;2.00;;;18.60;85.30;;;;;;4950277;28;20047;-52
2024/03/11 10:08:31;;;;;;;5.22;2.90;;;18.40;84.70;;;;;;4946994;29;20051;-52
2024/03/11 10:11:24;;;;;;;6.38;3.33;;;18.40;85.40;;;;;;4949183;28;20114;-54
2024/03/11 10:13:56;;;;;;;6.40;2.25;;;18.50;85.40;;;;;;4946874;29;20058;-52
2024/03/11 10:16:27;;;;;;;8.20;2.80;;;18.40;84.70;;;;;;4946546;29;20042;-52
2024/03/11 10:19:11;;;;;;;5.15;2.22;;;18.40;84.90;;;;;;4940479;28;20074;-52
2024/03/11 10:21:40;;;;;;;8.40;3.03;;;18.30;85.70;;;;;;4989829;28;20393;-52
2024/03/11 10:24:08;;;;;;;6.72;3.50;;;18.40;86.50;;;;;;4989558;28;20117;-51
2024/03/11 10:26:41;;;;;;;5.47;2.67;;;18.40;86.50;;;;;;4987006;28;20384;-52
2024/03/11 10:29:11;;;;;;;6.15;2.47;;;18.30;86.90;;;;;;4986666;28;20053;-51
2024/03/11 10:31:41;;;;;;;3.40;2.05;;;18.30;86.90;;;;;;4984779;28;20157;-51
2024/03/11 10:34:13;;;;;;;3.90;2.53;;;18.10;87.10;;;;;;4991366;28;20120;-54
2024/03/11 10:36:49;;;;;;;7.85;3.60;;;18.20;87.20;;;;;;4958188;28;20487;-52
2024/03/11 10:39:30;;;;;;;5.63;2.70;;;18.30;87.60;;;;;;4955222;28;20174;-51
2024/03/11 10:42:01;;;;;;;6.97;2.42;;;18.30;87.70;;;;;;4989539;28;20042;-53
2024/03/11 10:44:29;;;;;;;5.80;2.80;;;18.30;87.70;;;;;;4988288;28;20034;-53
2024/03/11 10:47:06;;;;;;;7.88;2.72;;;18.50;87.90;;;;;;4941617;28;20054;-52
2024/03/11 10:49:34;;;;;;;7.05;3.10;;;18.40;88.20;;;;;;4986408;28;20049;-51
2024/03/11 10:52:07;;;;;;;5.53;2.92;;;18.30;88.00;;;;;;4991825;28;20030;-54
2024/03/11 10:54:38;;;;;;;11.20;3.83;;;18.30;88.50;;;;;;4986562;28;20041;-53
2024/03/11 10:57:11;;;;;;;5.97;2.05;;;18.40;88.70;;;;;;4985339;28;20030;-52
2024/03/11 10:59:42;;;;;;;6.82;3.42;;;;;;;;;;4990094;28;20045;-54
2024/03/11 11:02:12;;;;;;;6.72;3.13;;;;;;;;;;4990755;28;20125;-52
2024/03/11 11:04:39;;;;;;;4.63;1.65;;;;;;;;;;4983818;28;20030;-52
2024/03/11 11:07:08;;;;;;;6.80;4.18;;;18.00;88.40;;;;;;4965298;28;20045;-52
2024/03/11 11:09:36;;;;;;;7.22;2.88;;;18.20;90.00;;;;;;4984845;28;20042;-52
2024/03/11 11:12:03;;;;;;;8.05;3.25;;;18.20;89.90;;;;;;4989316;28;20034;-51
2024/03/11 11:14:29;;;;;;;6.82;2.03;;;18.10;90.00;;;;;;4983240;28;20042;-52
2024/03/11 11:16:57;;;;;;;9.73;3.50;;;18.20;89.70;;;;;;4985556;28;20035;-52
2024/03/11 11:19:36;;;;;;;10.60;3.42;;;18.20;90.20;;;;;;4951005;28;20060;-50
2024/03/11 11:22:07;;;;;;;7.65;4.60;;;18.30;90.40;;;;;;4952936;28;21045;-51
2024/03/11 11:24:39;;;;;;;5.93;3.88;;;18.40;90.50;;;;;;4967122;28;20036;-51
2024/03/11 11:27:07;;;;;;;8.63;2.63;;;18.30;90.60;;;;;;4967973;28;20051;-54
2024/03/11 11:29:33;;;;;;;11.07;3.83;;;18.10;90.70;;;;;;4970928;28;20083;-52
2024/03/11 11:32:06;;;;;;;12.95;3.92;;;18.10;91.20;;;;;;4959221;28;20375;-51
2024/03/11 11:34:44;;;;;;;3.25;1.85;;;18.20;91.30;;;;;;4972246;28;20039;-51
2024/03/11 11:37:19;;;;;;;8.07;3.55;;;18.10;90.60;;;;;;4963834;28;20085;-51
2024/03/11 11:39:46;;;;;;;16.02;8.52;;;18.20;90.70;;;;;;4969845;28;20129;-51
2024/03/11 11:42:34;;;;;;;9.35;3.35;;;18.10;91.20;;;;;;4963678;28;20039;-51
2024/03/11 11:45:00;;;;;;;6.00;2.40;;;18.30;91.40;;;;;;4969686;28;20085;-52
2024/03/11 11:47:27;;;;;;;3.40;1.73;;;;;;;;;;4967099;28;20051;-51
2024/03/11 11:49:55;;;;;;;1.25;0.75;;;18.70;91.80;;;;;;4964360;28;20042;-52
2024/03/11 11:52:23;;;;;;;2.72;1.25;;;18.60;92.40;;;;;;4963517;28;20035;-52
2024/03/11 11:54:52;;;;;;;3.38;1.27;;;18.30;93.40;;;;;;4962035;28;20086;-51
2024/03/11 11:57:21;;;;;;;9.00;1.92;;;18.20;94.80;;;;;;4973730;28;20039;-51
2024/03/11 11:59:53;;;;;;;8.00;3.55;;;;;;;;;;4949933;28;20050;-51
2024/03/11 12:02:20;;;;;;;7.80;3.95;;;;;;;;;;4963426;28;20092;-51
2024/03/11 12:04:50;;;;;;;8.68;4.35;;;;;;;;;;4971105;28;20054;-51
2024/03/11 12:07:23;;;;;;;11.40;6.80;;;17.20;99.90;;;;;;4959180;28;20128;-51
2024/03/11 12:10:04;;;;;;;12.63;6.50;;;;;;;;;;4959727;28;20384;-51
2024/03/11 12:12:39;;;;;;;2.15;0.75;;;16.30;95.20;;;;;;4967967;28;20050;-52
2024/03/11 12:15:06;;;;;;;2.15;0.50;;;;;;;;;;4962943;28;20043;-51
2024/03/11 12:17:32;;;;;;;3.10;0.60;;;;;;;;;;4959886;28;20487;-52
2024/03/11 12:23:02;;;;;;;2.63;1.20;;;;;;;;;;4941812;28;20093;-51
2024/03/11 12:25:28;;;;;;;2.10;1.17;;;;;;;;;;4965595;28;20098;-51
2024/03/11 12:28:07;;;;;;;1.70;0.98;;;16.50;99.90;;;;;;4960464;28;20030;-52
2024/03/11 12:30:36;;;;;;;2.85;1.27;;;16.60;99.90;;;;;;4969424;28;20118;-51
2024/03/11 12:33:06;;;;;;;0.82;0.40;;;16.60;99.90;;;;;;4968132;28;20031;-51
2024/03/11 12:35:33;;;;;;;0.32;0.22;;;;;;;;;;4965138;28;20070;-52
2024/03/11 12:38:01;;;;;;;3.15;0.75;;;;;;;;;;4970032;28;20085;-53
2024/03/11 12:43:35;;;;;;;2.92;0.75;;;;;;;;;;4954524;28;20570;-52
2024/03/11 12:46:04;;;;;;;0.50;0.40;;;17.00;91.90;;;;;;4959710;28;20023;-52
2024/03/11 12:48:31;;;;;;;0.22;0.22;;;17.10;92.10;;;;;;4962841;28;20094;-52
2024/03/11 12:50:58;;;;;;;1.00;0.50;;;17.20;92.00;;;;;;4964083;28;20494;-52
2024/03/11 12:53:25;;;;;;;4.90;2.10;;;;;;;;;;4929832;28;20051;-52
2024/03/11 12:56:05;;;;;;;0.47;0.40;;;;;;;;;;4967721;28;20034;-52
2024/03/11 12:58:36;;;;;;;2.08;1.40;;;17.60;99.90;;;;;;4929593;28;20094;-52
2024/03/11 13:01:04;;;;;;;1.20;0.30;;;;;;;;;;4967095;28;20046;-52
2024/03/11 13:03:33;;;;;;;0.65;0.40;;;;;;;;;;4968401;28;20039;-54
2024/03/11 13:06:00;;;;;;;0.77;0.30;;;;;;;;;;4972680;28;20046;-54
2024/03/11 13:08:30;;;;;;;0.35;0.20;;;16.70;91.70;;;;;;4969399;28;20105;-52